sensor_id;sensor_type;location;lat;lon;timestamp;P1;durP1;ratioP1;P2;durP2;ratioP2
22937;SDS011;11634;42.734;23.298;2023-11-22T00:01:02;42.33;;;33.10;;
22937;SDS011;11634;42.734;23.298;2023-11-22T00:03:29;41.95;;;31.48;;
22937;SDS011;11634;42.734;23.298;2023-11-22T00:05:54;36.95;;;29.42;;
22937;SDS011;11634;42.734;23.298;2023-11-22T00:08:20;39.92;;;30.52;;
22937;SDS011;11634;42.734;23.298;2023-11-22T00:10:45;29.77;;;22.55;;
22937;SDS011;11634;42.734;23.298;2023-11-22T00:13:11;32.88;;;24.35;;
22937;SDS011;11634;42.734;23.298;2023-11-22T00:15:37;36.90;;;27.38;;
22937;SDS011;11634;42.734;23.298;2023-11-22T00:18:03;35.70;;;25.60;;
22937;SDS011;11634;42.734;23.298;2023-11-22T00:20:29;34.20;;;25.60;;
22937;SDS011;11634;42.734;23.298;2023-11-22T00:22:55;34.28;;;25.33;;
22937;SDS011;11634;42.734;23.298;2023-11-22T00:25:22;24.98;;;18.92;;
22937;SDS011;11634;42.734;23.298;2023-11-22T00:27:48;25.90;;;19.52;;
22937;SDS011;11634;42.734;23.298;2023-11-22T00:30:13;23.38;;;17.55;;
22937;SDS011;11634;42.734;23.298;2023-11-22T00:32:39;24.40;;;18.00;;
22937;SDS011;11634;42.734;23.298;2023-11-22T00:35:08;22.25;;;17.60;;
22937;SDS011;11634;42.734;23.298;2023-11-22T00:37:35;23.00;;;17.60;;
22937;SDS011;11634;42.734;23.298;2023-11-22T00:40:01;21.85;;;17.13;;
22937;SDS011;11634;42.734;23.298;2023-11-22T00:42:37;27.42;;;19.88;;
22937;SDS011;11634;42.734;23.298;2023-11-22T00:45:05;36.13;;;22.25;;
22937;SDS011;11634;42.734;23.298;2023-11-22T00:47:34;29.80;;;22.08;;
22937;SDS011;11634;42.734;23.298;2023-11-22T00:50:01;25.55;;;19.90;;
22937;SDS011;11634;42.734;23.298;2023-11-22T00:52:27;27.35;;;19.63;;
22937;SDS011;11634;42.734;23.298;2023-11-22T00:54:53;29.90;;;21.00;;
22937;SDS011;11634;42.734;23.298;2023-11-22T00:57:20;24.35;;;18.83;;
22937;SDS011;11634;42.734;23.298;2023-11-22T00:59:47;28.35;;;20.55;;
22937;SDS011;11634;42.734;23.298;2023-11-22T01:02:13;23.55;;;18.30;;
22937;SDS011;11634;42.734;23.298;2023-11-22T01:04:39;25.45;;;19.02;;
22937;SDS011;11634;42.734;23.298;2023-11-22T01:07:05;26.92;;;19.85;;
22937;SDS011;11634;42.734;23.298;2023-11-22T01:09:32;29.27;;;19.67;;
22937;SDS011;11634;42.734;23.298;2023-11-22T01:11:58;31.10;;;19.48;;
22937;SDS011;11634;42.734;23.298;2023-11-22T01:14:24;29.45;;;20.75;;
22937;SDS011;11634;42.734;23.298;2023-11-22T01:16:51;26.88;;;19.75;;
22937;SDS011;11634;42.734;23.298;2023-11-22T01:19:17;32.53;;;21.55;;
22937;SDS011;11634;42.734;23.298;2023-11-22T01:21:43;40.58;;;28.08;;
22937;SDS011;11634;42.734;23.298;2023-11-22T01:24:09;31.75;;;23.08;;
22937;SDS011;11634;42.734;23.298;2023-11-22T01:26:36;26.40;;;20.42;;
22937;SDS011;11634;42.734;23.298;2023-11-22T01:29:02;23.48;;;17.98;;
22937;SDS011;11634;42.734;23.298;2023-11-22T01:31:29;26.35;;;19.02;;
22937;SDS011;11634;42.734;23.298;2023-11-22T01:33:55;27.90;;;21.27;;
22937;SDS011;11634;42.734;23.298;2023-11-22T01:36:20;31.45;;;24.23;;
22937;SDS011;11634;42.734;23.298;2023-11-22T01:38:46;30.65;;;24.98;;
22937;SDS011;11634;42.734;23.298;2023-11-22T01:41:12;24.63;;;18.52;;
22937;SDS011;11634;42.734;23.298;2023-11-22T01:43:39;26.13;;;19.33;;
22937;SDS011;11634;42.734;23.298;2023-11-22T01:46:06;28.55;;;20.10;;
22937;SDS011;11634;42.734;23.298;2023-11-22T01:48:42;25.02;;;17.75;;
22937;SDS011;11634;42.734;23.298;2023-11-22T01:51:09;24.05;;;15.77;;
22937;SDS011;11634;42.734;23.298;2023-11-22T01:53:35;22.95;;;16.38;;
22937;SDS011;11634;42.734;23.298;2023-11-22T01:56:01;22.13;;;17.13;;
22937;SDS011;11634;42.734;23.298;2023-11-22T01:58:27;21.80;;;14.60;;
22937;SDS011;11634;42.734;23.298;2023-11-22T02:00:53;20.13;;;14.35;;
22937;SDS011;11634;42.734;23.298;2023-11-22T02:03:19;25.48;;;17.27;;
22937;SDS011;11634;42.734;23.298;2023-11-22T02:05:46;25.65;;;17.25;;
22937;SDS011;11634;42.734;23.298;2023-11-22T02:08:12;24.83;;;18.70;;
22937;SDS011;11634;42.734;23.298;2023-11-22T02:10:40;25.80;;;18.38;;
22937;SDS011;11634;42.734;23.298;2023-11-22T02:13:10;23.65;;;17.23;;
22937;SDS011;11634;42.734;23.298;2023-11-22T02:15:36;23.65;;;18.05;;
22937;SDS011;11634;42.734;23.298;2023-11-22T02:18:03;22.20;;;17.70;;
22937;SDS011;11634;42.734;23.298;2023-11-22T02:20:31;23.85;;;17.45;;
22937;SDS011;11634;42.734;23.298;2023-11-22T02:22:56;25.15;;;18.88;;
22937;SDS011;11634;42.734;23.298;2023-11-22T02:25:24;27.23;;;19.10;;
22937;SDS011;11634;42.734;23.298;2023-11-22T02:27:49;22.55;;;16.17;;
22937;SDS011;11634;42.734;23.298;2023-11-22T02:30:15;21.23;;;17.13;;
22937;SDS011;11634;42.734;23.298;2023-11-22T02:32:41;23.92;;;17.67;;
22937;SDS011;11634;42.734;23.298;2023-11-22T02:35:07;22.85;;;18.85;;
22937;SDS011;11634;42.734;23.298;2023-11-22T02:37:36;21.55;;;16.63;;
22937;SDS011;11634;42.734;23.298;2023-11-22T02:40:05;25.08;;;18.25;;
22937;SDS011;11634;42.734;23.298;2023-11-22T02:42:43;23.02;;;17.30;;
22937;SDS011;11634;42.734;23.298;2023-11-22T02:45:09;22.80;;;17.80;;
22937;SDS011;11634;42.734;23.298;2023-11-22T02:47:35;21.25;;;16.80;;
22937;SDS011;11634;42.734;23.298;2023-11-22T02:50:02;20.63;;;16.70;;
22937;SDS011;11634;42.734;23.298;2023-11-22T02:52:30;24.02;;;17.08;;
22937;SDS011;11634;42.734;23.298;2023-11-22T02:54:57;22.13;;;17.48;;
22937;SDS011;11634;42.734;23.298;2023-11-22T02:57:24;20.52;;;17.08;;
22937;SDS011;11634;42.734;23.298;2023-11-22T02:59:50;21.38;;;15.10;;
22937;SDS011;11634;42.734;23.298;2023-11-22T03:02:15;24.10;;;15.80;;
22937;SDS011;11634;42.734;23.298;2023-11-22T03:04:44;21.33;;;16.13;;
22937;SDS011;11634;42.734;23.298;2023-11-22T03:07:09;19.38;;;15.40;;
22937;SDS011;11634;42.734;23.298;2023-11-22T03:09:35;19.77;;;15.80;;
22937;SDS011;11634;42.734;23.298;2023-11-22T03:12:03;23.08;;;17.58;;
22937;SDS011;11634;42.734;23.298;2023-11-22T03:14:30;21.30;;;16.25;;
22937;SDS011;11634;42.734;23.298;2023-11-22T03:16:56;21.65;;;16.05;;
22937;SDS011;11634;42.734;23.298;2023-11-22T03:19:23;21.85;;;16.83;;
22937;SDS011;11634;42.734;23.298;2023-11-22T03:21:49;24.58;;;17.85;;
22937;SDS011;11634;42.734;23.298;2023-11-22T03:24:15;23.33;;;17.33;;
22937;SDS011;11634;42.734;23.298;2023-11-22T03:26:41;22.05;;;16.80;;
22937;SDS011;11634;42.734;23.298;2023-11-22T03:29:07;25.35;;;19.77;;
22937;SDS011;11634;42.734;23.298;2023-11-22T03:31:33;27.45;;;21.52;;
22937;SDS011;11634;42.734;23.298;2023-11-22T03:33:58;23.23;;;19.50;;
22937;SDS011;11634;42.734;23.298;2023-11-22T03:36:25;24.08;;;19.40;;
22937;SDS011;11634;42.734;23.298;2023-11-22T03:38:51;26.33;;;21.13;;
22937;SDS011;11634;42.734;23.298;2023-11-22T03:41:16;29.80;;;21.45;;
22937;SDS011;11634;42.734;23.298;2023-11-22T03:43:43;29.30;;;21.58;;
22937;SDS011;11634;42.734;23.298;2023-11-22T03:46:10;29.70;;;22.20;;
22937;SDS011;11634;42.734;23.298;2023-11-22T03:48:39;30.38;;;22.55;;
22937;SDS011;11634;42.734;23.298;2023-11-22T03:51:05;25.58;;;20.80;;
22937;SDS011;11634;42.734;23.298;2023-11-22T03:53:30;29.67;;;22.73;;
22937;SDS011;11634;42.734;23.298;2023-11-22T03:55:57;30.23;;;21.70;;
22937;SDS011;11634;42.734;23.298;2023-11-22T03:58:23;33.22;;;25.13;;
22937;SDS011;11634;42.734;23.298;2023-11-22T04:00:49;33.72;;;26.23;;
22937;SDS011;11634;42.734;23.298;2023-11-22T04:03:17;101.75;;;54.58;;
22937;SDS011;11634;42.734;23.298;2023-11-22T04:05:44;52.88;;;33.55;;
22937;SDS011;11634;42.734;23.298;2023-11-22T04:08:09;38.88;;;27.83;;
22937;SDS011;11634;42.734;23.298;2023-11-22T04:10:35;33.00;;;22.90;;
22937;SDS011;11634;42.734;23.298;2023-11-22T04:13:01;39.90;;;30.02;;
22937;SDS011;11634;42.734;23.298;2023-11-22T04:15:26;28.48;;;23.05;;
22937;SDS011;11634;42.734;23.298;2023-11-22T04:17:52;25.05;;;20.33;;
22937;SDS011;11634;42.734;23.298;2023-11-22T04:20:19;24.50;;;19.55;;
22937;SDS011;11634;42.734;23.298;2023-11-22T04:22:45;29.42;;;20.40;;
22937;SDS011;11634;42.734;23.298;2023-11-22T04:25:11;21.83;;;17.92;;
22937;SDS011;11634;42.734;23.298;2023-11-22T04:27:40;26.42;;;18.85;;
22937;SDS011;11634;42.734;23.298;2023-11-22T04:30:07;26.17;;;19.80;;
22937;SDS011;11634;42.734;23.298;2023-11-22T04:32:40;27.90;;;19.95;;
22937;SDS011;11634;42.734;23.298;2023-11-22T04:35:07;26.30;;;19.13;;
22937;SDS011;11634;42.734;23.298;2023-11-22T04:37:33;27.17;;;20.95;;
22937;SDS011;11634;42.734;23.298;2023-11-22T04:39:59;23.00;;;19.95;;
22937;SDS011;11634;42.734;23.298;2023-11-22T04:42:26;23.90;;;19.20;;
22937;SDS011;11634;42.734;23.298;2023-11-22T04:44:55;22.30;;;17.33;;
22937;SDS011;11634;42.734;23.298;2023-11-22T04:47:21;22.05;;;17.73;;
22937;SDS011;11634;42.734;23.298;2023-11-22T04:49:47;22.23;;;17.10;;
22937;SDS011;11634;42.734;23.298;2023-11-22T04:52:14;22.83;;;17.85;;
22937;SDS011;11634;42.734;23.298;2023-11-22T04:54:39;28.48;;;18.50;;
22937;SDS011;11634;42.734;23.298;2023-11-22T04:57:05;22.33;;;17.75;;
22937;SDS011;11634;42.734;23.298;2023-11-22T04:59:31;24.70;;;17.45;;
22937;SDS011;11634;42.734;23.298;2023-11-22T05:02:00;21.92;;;16.77;;
22937;SDS011;11634;42.734;23.298;2023-11-22T05:04:25;23.25;;;16.65;;
22937;SDS011;11634;42.734;23.298;2023-11-22T05:06:53;23.40;;;17.55;;
22937;SDS011;11634;42.734;23.298;2023-11-22T05:09:19;21.92;;;17.50;;
22937;SDS011;11634;42.734;23.298;2023-11-22T05:11:45;17.98;;;14.85;;
22937;SDS011;11634;42.734;23.298;2023-11-22T05:14:11;22.33;;;16.65;;
22937;SDS011;11634;42.734;23.298;2023-11-22T05:16:38;21.42;;;16.67;;
22937;SDS011;11634;42.734;23.298;2023-11-22T05:19:03;28.38;;;19.17;;
22937;SDS011;11634;42.734;23.298;2023-11-22T05:21:29;22.55;;;17.95;;
22937;SDS011;11634;42.734;23.298;2023-11-22T05:23:56;27.73;;;19.23;;
22937;SDS011;11634;42.734;23.298;2023-11-22T05:26:23;21.73;;;18.67;;
22937;SDS011;11634;42.734;23.298;2023-11-22T05:28:48;27.45;;;21.13;;
22937;SDS011;11634;42.734;23.298;2023-11-22T05:31:14;30.50;;;20.23;;
22937;SDS011;11634;42.734;23.298;2023-11-22T05:33:40;25.75;;;20.02;;
22937;SDS011;11634;42.734;23.298;2023-11-22T05:36:06;21.38;;;17.17;;
22937;SDS011;11634;42.734;23.298;2023-11-22T05:38:33;23.35;;;17.42;;
22937;SDS011;11634;42.734;23.298;2023-11-22T05:41:00;20.63;;;15.25;;
22937;SDS011;11634;42.734;23.298;2023-11-22T05:43:26;18.70;;;15.10;;
22937;SDS011;11634;42.734;23.298;2023-11-22T05:45:52;17.85;;;15.38;;
22937;SDS011;11634;42.734;23.298;2023-11-22T05:48:18;15.75;;;12.95;;
22937;SDS011;11634;42.734;23.298;2023-11-22T05:50:45;16.63;;;13.40;;
22937;SDS011;11634;42.734;23.298;2023-11-22T05:53:11;15.45;;;13.38;;
22937;SDS011;11634;42.734;23.298;2023-11-22T05:55:37;16.83;;;13.43;;
22937;SDS011;11634;42.734;23.298;2023-11-22T05:58:03;19.30;;;14.40;;
22937;SDS011;11634;42.734;23.298;2023-11-22T06:00:29;20.20;;;14.35;;
22937;SDS011;11634;42.734;23.298;2023-11-22T06:02:55;19.60;;;16.38;;
22937;SDS011;11634;42.734;23.298;2023-11-22T06:05:21;17.15;;;13.98;;
22937;SDS011;11634;42.734;23.298;2023-11-22T06:07:47;20.60;;;15.13;;
22937;SDS011;11634;42.734;23.298;2023-11-22T06:10:13;21.80;;;16.63;;
22937;SDS011;11634;42.734;23.298;2023-11-22T06:12:49;23.85;;;16.17;;
22937;SDS011;11634;42.734;23.298;2023-11-22T06:15:16;19.33;;;15.32;;
22937;SDS011;11634;42.734;23.298;2023-11-22T06:17:46;22.55;;;15.90;;
22937;SDS011;11634;42.734;23.298;2023-11-22T06:20:15;23.85;;;17.08;;
22937;SDS011;11634;42.734;23.298;2023-11-22T06:22:41;19.40;;;14.80;;
22937;SDS011;11634;42.734;23.298;2023-11-22T06:25:13;18.75;;;12.93;;
22937;SDS011;11634;42.734;23.298;2023-11-22T06:27:40;14.95;;;12.57;;
22937;SDS011;11634;42.734;23.298;2023-11-22T06:30:06;21.25;;;13.93;;
22937;SDS011;11634;42.734;23.298;2023-11-22T06:32:34;17.42;;;13.90;;
22937;SDS011;11634;42.734;23.298;2023-11-22T06:35:00;15.90;;;13.23;;
22937;SDS011;11634;42.734;23.298;2023-11-22T06:37:28;14.82;;;12.95;;
22937;SDS011;11634;42.734;23.298;2023-11-22T06:39:53;17.08;;;14.25;;
22937;SDS011;11634;42.734;23.298;2023-11-22T06:42:20;15.77;;;13.20;;
22937;SDS011;11634;42.734;23.298;2023-11-22T06:44:48;22.00;;;14.25;;
22937;SDS011;11634;42.734;23.298;2023-11-22T06:47:16;22.30;;;18.02;;
22937;SDS011;11634;42.734;23.298;2023-11-22T06:49:42;23.40;;;18.08;;
22937;SDS011;11634;42.734;23.298;2023-11-22T06:52:09;21.13;;;15.13;;
22937;SDS011;11634;42.734;23.298;2023-11-22T06:54:34;20.30;;;15.90;;
22937;SDS011;11634;42.734;23.298;2023-11-22T06:57:02;24.80;;;17.65;;
22937;SDS011;11634;42.734;23.298;2023-11-22T06:59:28;23.48;;;18.02;;
22937;SDS011;11634;42.734;23.298;2023-11-22T07:01:54;26.00;;;20.65;;
22937;SDS011;11634;42.734;23.298;2023-11-22T07:04:21;25.75;;;17.98;;
22937;SDS011;11634;42.734;23.298;2023-11-22T07:06:48;32.13;;;25.35;;
22937;SDS011;11634;42.734;23.298;2023-11-22T07:09:14;40.88;;;31.45;;
22937;SDS011;11634;42.734;23.298;2023-11-22T07:11:40;29.92;;;22.02;;
22937;SDS011;11634;42.734;23.298;2023-11-22T07:14:09;25.15;;;19.83;;
22937;SDS011;11634;42.734;23.298;2023-11-22T07:16:34;21.35;;;18.00;;
22937;SDS011;11634;42.734;23.298;2023-11-22T07:19:01;24.67;;;18.77;;
22937;SDS011;11634;42.734;23.298;2023-11-22T07:21:28;26.50;;;19.00;;
22937;SDS011;11634;42.734;23.298;2023-11-22T07:23:55;20.98;;;17.35;;
22937;SDS011;11634;42.734;23.298;2023-11-22T07:26:21;26.35;;;17.73;;
22937;SDS011;11634;42.734;23.298;2023-11-22T07:28:47;22.10;;;17.95;;
22937;SDS011;11634;42.734;23.298;2023-11-22T07:31:14;26.10;;;19.67;;
22937;SDS011;11634;42.734;23.298;2023-11-22T07:33:41;23.75;;;19.27;;
22937;SDS011;11634;42.734;23.298;2023-11-22T07:36:09;31.08;;;20.77;;
22937;SDS011;11634;42.734;23.298;2023-11-22T07:38:34;30.60;;;22.15;;
22937;SDS011;11634;42.734;23.298;2023-11-22T07:41:02;27.63;;;21.05;;
22937;SDS011;11634;42.734;23.298;2023-11-22T07:43:27;23.38;;;19.98;;
22937;SDS011;11634;42.734;23.298;2023-11-22T07:45:53;30.38;;;22.80;;
22937;SDS011;11634;42.734;23.298;2023-11-22T07:48:19;30.38;;;25.33;;
22937;SDS011;11634;42.734;23.298;2023-11-22T07:50:45;32.95;;;25.73;;
22937;SDS011;11634;42.734;23.298;2023-11-22T07:53:11;33.97;;;26.15;;
22937;SDS011;11634;42.734;23.298;2023-11-22T07:55:39;34.75;;;27.52;;
22937;SDS011;11634;42.734;23.298;2023-11-22T07:58:07;39.45;;;29.33;;
22937;SDS011;11634;42.734;23.298;2023-11-22T08:00:34;38.90;;;29.27;;
22937;SDS011;11634;42.734;23.298;2023-11-22T08:03:00;48.42;;;30.75;;
22937;SDS011;11634;42.734;23.298;2023-11-22T08:05:29;40.72;;;29.63;;
22937;SDS011;11634;42.734;23.298;2023-11-22T08:08:01;39.85;;;29.38;;
22937;SDS011;11634;42.734;23.298;2023-11-22T08:10:37;37.40;;;31.00;;
22937;SDS011;11634;42.734;23.298;2023-11-22T08:13:03;41.78;;;34.90;;
22937;SDS011;11634;42.734;23.298;2023-11-22T08:15:29;26.35;;;19.33;;
22937;SDS011;11634;42.734;23.298;2023-11-22T08:17:57;15.00;;;12.60;;
22937;SDS011;11634;42.734;23.298;2023-11-22T08:20:25;20.23;;;16.30;;
22937;SDS011;11634;42.734;23.298;2023-11-22T08:22:51;19.45;;;15.70;;
22937;SDS011;11634;42.734;23.298;2023-11-22T08:25:17;16.75;;;13.93;;
22937;SDS011;11634;42.734;23.298;2023-11-22T08:27:43;18.65;;;14.20;;
22937;SDS011;11634;42.734;23.298;2023-11-22T08:30:09;18.30;;;14.18;;
22937;SDS011;11634;42.734;23.298;2023-11-22T08:32:44;16.48;;;12.60;;
22937;SDS011;11634;42.734;23.298;2023-11-22T08:35:16;31.17;;;20.98;;
22937;SDS011;11634;42.734;23.298;2023-11-22T08:37:42;19.90;;;13.98;;
22937;SDS011;11634;42.734;23.298;2023-11-22T08:40:10;25.27;;;16.38;;
22937;SDS011;11634;42.734;23.298;2023-11-22T08:42:45;16.40;;;11.30;;
22937;SDS011;11634;42.734;23.298;2023-11-22T08:45:11;18.30;;;12.27;;
22937;SDS011;11634;42.734;23.298;2023-11-22T08:47:40;18.33;;;13.32;;
22937;SDS011;11634;42.734;23.298;2023-11-22T08:50:09;14.35;;;11.27;;
22937;SDS011;11634;42.734;23.298;2023-11-22T08:52:39;12.43;;;9.60;;
22937;SDS011;11634;42.734;23.298;2023-11-22T08:55:07;14.25;;;10.60;;
22937;SDS011;11634;42.734;23.298;2023-11-22T08:57:37;14.95;;;11.38;;
22937;SDS011;11634;42.734;23.298;2023-11-22T09:00:03;16.02;;;12.68;;
22937;SDS011;11634;42.734;23.298;2023-11-22T09:02:37;16.80;;;13.55;;
22937;SDS011;11634;42.734;23.298;2023-11-22T09:05:05;18.35;;;14.68;;
22937;SDS011;11634;42.734;23.298;2023-11-22T09:07:34;21.40;;;16.70;;
22937;SDS011;11634;42.734;23.298;2023-11-22T09:10:03;29.33;;;23.05;;
22937;SDS011;11634;42.734;23.298;2023-11-22T09:12:36;32.10;;;21.98;;
22937;SDS011;11634;42.734;23.298;2023-11-22T09:15:04;27.52;;;21.08;;
22937;SDS011;11634;42.734;23.298;2023-11-22T09:17:37;29.75;;;21.50;;
22937;SDS011;11634;42.734;23.298;2023-11-22T09:20:15;31.42;;;20.77;;
22937;SDS011;11634;42.734;23.298;2023-11-22T09:22:51;32.40;;;21.65;;
22937;SDS011;11634;42.734;23.298;2023-11-22T09:25:20;30.63;;;22.05;;
22937;SDS011;11634;42.734;23.298;2023-11-22T09:27:48;30.13;;;23.60;;
22937;SDS011;11634;42.734;23.298;2023-11-22T09:30:19;31.17;;;23.50;;
22937;SDS011;11634;42.734;23.298;2023-11-22T09:33:05;33.80;;;24.27;;
22937;SDS011;11634;42.734;23.298;2023-11-22T09:35:32;31.55;;;24.50;;
22937;SDS011;11634;42.734;23.298;2023-11-22T09:37:59;30.65;;;22.92;;
22937;SDS011;11634;42.734;23.298;2023-11-22T09:40:26;36.70;;;25.88;;
22937;SDS011;11634;42.734;23.298;2023-11-22T09:42:57;37.65;;;24.25;;
22937;SDS011;11634;42.734;23.298;2023-11-22T09:45:23;41.38;;;25.98;;
22937;SDS011;11634;42.734;23.298;2023-11-22T09:47:50;37.60;;;26.10;;
22937;SDS011;11634;42.734;23.298;2023-11-22T09:53:05;31.77;;;24.00;;
22937;SDS011;11634;42.734;23.298;2023-11-22T09:55:38;33.42;;;24.65;;
22937;SDS011;11634;42.734;23.298;2023-11-22T09:58:08;31.50;;;23.30;;
22937;SDS011;11634;42.734;23.298;2023-11-22T10:00:38;29.98;;;23.48;;
22937;SDS011;11634;42.734;23.298;2023-11-22T10:03:06;31.92;;;24.30;;
22937;SDS011;11634;42.734;23.298;2023-11-22T10:05:32;34.28;;;25.30;;
22937;SDS011;11634;42.734;23.298;2023-11-22T10:08:00;34.33;;;25.58;;
22937;SDS011;11634;42.734;23.298;2023-11-22T10:10:26;30.13;;;22.77;;
22937;SDS011;11634;42.734;23.298;2023-11-22T10:12:57;31.40;;;26.63;;
22937;SDS011;11634;42.734;23.298;2023-11-22T10:15:27;29.60;;;24.83;;
22937;SDS011;11634;42.734;23.298;2023-11-22T10:17:57;34.67;;;28.33;;
22937;SDS011;11634;42.734;23.298;2023-11-22T10:20:35;32.25;;;25.38;;
22937;SDS011;11634;42.734;23.298;2023-11-22T10:23:12;30.60;;;24.63;;
22937;SDS011;11634;42.734;23.298;2023-11-22T10:28:18;32.42;;;22.80;;
22937;SDS011;11634;42.734;23.298;2023-11-22T10:30:49;28.75;;;23.13;;
22937;SDS011;11634;42.734;23.298;2023-11-22T10:36:08;26.77;;;20.80;;
22937;SDS011;11634;42.734;23.298;2023-11-22T10:38:35;30.35;;;22.52;;
22937;SDS011;11634;42.734;23.298;2023-11-22T10:41:06;26.63;;;22.55;;
22937;SDS011;11634;42.734;23.298;2023-11-22T10:43:37;28.70;;;23.30;;
22937;SDS011;11634;42.734;23.298;2023-11-22T10:46:04;22.13;;;17.85;;
22937;SDS011;11634;42.734;23.298;2023-11-22T10:48:31;17.20;;;15.00;;
22937;SDS011;11634;42.734;23.298;2023-11-22T10:51:02;23.05;;;17.38;;
22937;SDS011;11634;42.734;23.298;2023-11-22T10:53:33;23.85;;;17.55;;
22937;SDS011;11634;42.734;23.298;2023-11-22T10:58:39;18.50;;;15.57;;
22937;SDS011;11634;42.734;23.298;2023-11-22T11:01:21;23.40;;;18.55;;
22937;SDS011;11634;42.734;23.298;2023-11-22T11:04:03;16.65;;;13.98;;
22937;SDS011;11634;42.734;23.298;2023-11-22T11:06:35;16.92;;;12.77;;
22937;SDS011;11634;42.734;23.298;2023-11-22T11:09:02;15.45;;;12.82;;
22937;SDS011;11634;42.734;23.298;2023-11-22T11:11:36;14.15;;;11.05;;
22937;SDS011;11634;42.734;23.298;2023-11-22T11:14:04;13.07;;;11.55;;
22937;SDS011;11634;42.734;23.298;2023-11-22T11:16:32;16.50;;;11.48;;
22937;SDS011;11634;42.734;23.298;2023-11-22T11:19:02;14.55;;;11.35;;
22937;SDS011;11634;42.734;23.298;2023-11-22T11:21:32;14.55;;;11.88;;
22937;SDS011;11634;42.734;23.298;2023-11-22T11:23:58;17.95;;;12.07;;
22937;SDS011;11634;42.734;23.298;2023-11-22T11:26:49;14.75;;;12.30;;
22937;SDS011;11634;42.734;23.298;2023-11-22T11:29:29;14.30;;;12.20;;
22937;SDS011;11634;42.734;23.298;2023-11-22T11:31:56;13.13;;;11.77;;
22937;SDS011;11634;42.734;23.298;2023-11-22T11:34:23;17.58;;;11.90;;
22937;SDS011;11634;42.734;23.298;2023-11-22T11:36:52;14.00;;;11.98;;
22937;SDS011;11634;42.734;23.298;2023-11-22T11:39:25;15.30;;;12.57;;
22937;SDS011;11634;42.734;23.298;2023-11-22T11:42:18;14.35;;;11.65;;
22937;SDS011;11634;42.734;23.298;2023-11-22T11:47:24;15.85;;;12.77;;
22937;SDS011;11634;42.734;23.298;2023-11-22T11:49:49;18.40;;;13.00;;
22937;SDS011;11634;42.734;23.298;2023-11-22T11:52:18;20.70;;;13.77;;
22937;SDS011;11634;42.734;23.298;2023-11-22T11:54:44;17.48;;;13.60;;
22937;SDS011;11634;42.734;23.298;2023-11-22T11:57:10;18.92;;;13.65;;
22937;SDS011;11634;42.734;23.298;2023-11-22T11:59:35;24.27;;;14.07;;
22937;SDS011;11634;42.734;23.298;2023-11-22T12:02:01;19.20;;;14.07;;
22937;SDS011;11634;42.734;23.298;2023-11-22T12:04:31;18.27;;;12.82;;
22937;SDS011;11634;42.734;23.298;2023-11-22T12:06:58;23.40;;;13.75;;
22937;SDS011;11634;42.734;23.298;2023-11-22T12:09:24;22.38;;;14.70;;
22937;SDS011;11634;42.734;23.298;2023-11-22T12:11:52;18.95;;;13.65;;
22937;SDS011;11634;42.734;23.298;2023-11-22T12:14:21;18.63;;;14.10;;
22937;SDS011;11634;42.734;23.298;2023-11-22T12:16:51;20.05;;;15.32;;
22937;SDS011;11634;42.734;23.298;2023-11-22T12:19:23;21.27;;;15.18;;
22937;SDS011;11634;42.734;23.298;2023-11-22T12:21:50;19.58;;;14.57;;
22937;SDS011;11634;42.734;23.298;2023-11-22T12:24:16;17.35;;;14.57;;
22937;SDS011;11634;42.734;23.298;2023-11-22T12:26:46;20.30;;;14.85;;
22937;SDS011;11634;42.734;23.298;2023-11-22T12:29:15;17.13;;;14.50;;
22937;SDS011;11634;42.734;23.298;2023-11-22T12:34:18;20.50;;;14.80;;
22937;SDS011;11634;42.734;23.298;2023-11-22T12:36:45;19.92;;;14.55;;
22937;SDS011;11634;42.734;23.298;2023-11-22T12:39:14;19.40;;;14.23;;
22937;SDS011;11634;42.734;23.298;2023-11-22T12:41:44;21.27;;;15.32;;
22937;SDS011;11634;42.734;23.298;2023-11-22T12:44:13;16.17;;;13.90;;
22937;SDS011;11634;42.734;23.298;2023-11-22T12:46:45;18.77;;;14.98;;
22937;SDS011;11634;42.734;23.298;2023-11-22T12:49:22;18.85;;;13.57;;
22937;SDS011;11634;42.734;23.298;2023-11-22T12:51:52;16.98;;;13.35;;
22937;SDS011;11634;42.734;23.298;2023-11-22T12:54:22;17.75;;;13.93;;
22937;SDS011;11634;42.734;23.298;2023-11-22T12:56:53;16.65;;;12.50;;
22937;SDS011;11634;42.734;23.298;2023-11-22T12:59:25;15.65;;;13.20;;
22937;SDS011;11634;42.734;23.298;2023-11-22T13:01:55;13.23;;;11.27;;
22937;SDS011;11634;42.734;23.298;2023-11-22T13:04:23;14.98;;;11.48;;
22937;SDS011;11634;42.734;23.298;2023-11-22T13:06:48;14.45;;;11.73;;
22937;SDS011;11634;42.734;23.298;2023-11-22T13:09:14;10.88;;;9.50;;
22937;SDS011;11634;42.734;23.298;2023-11-22T13:11:41;13.73;;;9.38;;
22937;SDS011;11634;42.734;23.298;2023-11-22T13:14:08;10.52;;;8.82;;
22937;SDS011;11634;42.734;23.298;2023-11-22T13:16:34;10.30;;;8.93;;
22937;SDS011;11634;42.734;23.298;2023-11-22T13:19:02;12.60;;;8.05;;
22937;SDS011;11634;42.734;23.298;2023-11-22T13:21:29;10.20;;;8.57;;
22937;SDS011;11634;42.734;23.298;2023-11-22T13:23:56;12.40;;;9.23;;
22937;SDS011;11634;42.734;23.298;2023-11-22T13:26:24;12.82;;;10.35;;
22937;SDS011;11634;42.734;23.298;2023-11-22T13:28:52;12.18;;;10.68;;
22937;SDS011;11634;42.734;23.298;2023-11-22T13:31:19;15.48;;;11.32;;
22937;SDS011;11634;42.734;23.298;2023-11-22T13:33:49;13.02;;;10.88;;
22937;SDS011;11634;42.734;23.298;2023-11-22T13:36:16;17.15;;;12.13;;
22937;SDS011;11634;42.734;23.298;2023-11-22T13:38:50;18.77;;;13.27;;
22937;SDS011;11634;42.734;23.298;2023-11-22T13:41:15;14.95;;;12.40;;
22937;SDS011;11634;42.734;23.298;2023-11-22T13:43:43;13.50;;;12.02;;
22937;SDS011;11634;42.734;23.298;2023-11-22T13:46:11;16.02;;;13.43;;
22937;SDS011;11634;42.734;23.298;2023-11-22T13:48:37;23.90;;;14.73;;
22937;SDS011;11634;42.734;23.298;2023-11-22T13:51:03;19.65;;;14.77;;
22937;SDS011;11634;42.734;23.298;2023-11-22T13:53:29;19.10;;;15.30;;
22937;SDS011;11634;42.734;23.298;2023-11-22T13:55:59;20.88;;;17.08;;
22937;SDS011;11634;42.734;23.298;2023-11-22T13:58:26;18.80;;;14.98;;
22937;SDS011;11634;42.734;23.298;2023-11-22T14:00:52;20.60;;;16.23;;
22937;SDS011;11634;42.734;23.298;2023-11-22T14:03:19;23.02;;;15.93;;
22937;SDS011;11634;42.734;23.298;2023-11-22T14:05:47;21.65;;;16.05;;
22937;SDS011;11634;42.734;23.298;2023-11-22T14:08:15;22.02;;;16.90;;
22937;SDS011;11634;42.734;23.298;2023-11-22T14:10:42;24.02;;;18.75;;
22937;SDS011;11634;42.734;23.298;2023-11-22T14:13:07;18.85;;;16.17;;
22937;SDS011;11634;42.734;23.298;2023-11-22T14:15:33;23.60;;;17.75;;
22937;SDS011;11634;42.734;23.298;2023-11-22T14:18:00;19.83;;;16.35;;
22937;SDS011;11634;42.734;23.298;2023-11-22T14:20:26;20.67;;;17.67;;
22937;SDS011;11634;42.734;23.298;2023-11-22T14:22:51;21.70;;;17.65;;
22937;SDS011;11634;42.734;23.298;2023-11-22T14:25:18;18.92;;;16.10;;
22937;SDS011;11634;42.734;23.298;2023-11-22T14:27:44;21.38;;;16.20;;